Time;durP1;ratioP1;P1;durP2;ratioP2;P2;SDS_P1;SDS_P2;PMS_P1;PMS_P2;Temp;Humidity;BMP_temperature;BMP_pressure;BME280_temperature;BME280_humidity;BME280_pressure;Samples;Min_cycle;Max_cycle;Signal;HPM_P1;HPM_P2
2022/04/14 00:00:23;;;;;;;9.93;8.77;;;17.30;99.90;;;;;;4972478;28;20955;-74
2022/04/14 00:02:50;;;;;;;9.10;8.03;;;17.20;99.90;;;;;;4972568;28;20614;-74
2022/04/14 00:05:15;;;;;;;9.97;7.70;;;17.20;99.90;;;;;;4972769;28;20641;-74
2022/04/14 00:07:41;;;;;;;8.40;6.60;;;17.20;99.90;;;;;;4971196;28;20578;-74
2022/04/14 00:10:08;;;;;;;6.30;5.63;;;17.10;99.90;;;;;;4972588;28;20651;-74
2022/04/14 00:12:33;;;;;;;9.17;7.77;;;17.10;99.90;;;;;;4971419;28;20941;-74
2022/04/14 00:15:00;;;;;;;10.20;8.20;;;17.10;99.90;;;;;;4972581;28;20564;-74
2022/04/14 00:17:26;;;;;;;8.63;7.73;;;17.10;99.90;;;;;;4972396;28;20178;-74
2022/04/14 00:19:52;;;;;;;10.43;8.40;;;17.00;99.90;;;;;;4972290;28;20690;-74
2022/04/14 00:22:17;;;;;;;8.20;7.03;;;17.00;99.90;;;;;;4976227;28;20191;-74
2022/04/14 00:24:43;;;;;;;7.63;6.93;;;16.90;99.90;;;;;;4975287;28;20262;-74
2022/04/14 00:27:09;;;;;;;7.17;6.47;;;16.90;99.90;;;;;;4976406;28;20199;-74
2022/04/14 00:29:34;;;;;;;7.50;6.07;;;16.90;99.90;;;;;;4982726;28;20248;-74
2022/04/14 00:32:00;;;;;;;7.87;7.07;;;16.80;99.90;;;;;;4986365;28;20649;-75
2022/04/14 00:34:26;;;;;;;7.47;6.57;;;16.80;99.90;;;;;;4995950;28;20155;-74
2022/04/14 00:36:52;;;;;;;8.93;6.73;;;16.80;99.90;;;;;;4995887;28;20653;-74
2022/04/14 00:39:18;;;;;;;7.50;6.80;;;16.70;99.90;;;;;;4993982;28;20229;-73
2022/04/14 00:41:44;;;;;;;8.77;6.90;;;16.70;99.90;;;;;;4994481;28;20167;-74
2022/04/14 00:44:10;;;;;;;7.83;6.70;;;16.70;99.90;;;;;;4995643;28;20182;-74
2022/04/14 00:46:35;;;;;;;8.83;7.93;;;16.70;99.90;;;;;;4991442;28;20183;-74
2022/04/14 00:49:01;;;;;;;8.10;7.30;;;16.70;99.90;;;;;;4969183;28;20641;-74
2022/04/14 00:51:27;;;;;;;7.60;6.50;;;16.70;99.90;;;;;;4980073;28;20186;-74
2022/04/14 00:53:53;;;;;;;6.60;4.60;;;16.60;99.90;;;;;;4985907;28;20263;-74
2022/04/14 00:56:18;;;;;;;6.50;5.90;;;16.70;99.90;;;;;;4995180;28;20175;-74
2022/04/14 00:58:44;;;;;;;8.63;7.07;;;16.70;99.90;;;;;;4994945;28;20590;-74
2022/04/14 01:01:12;;;;;;;10.53;7.70;;;16.60;99.90;;;;;;4989452;28;20227;-75
2022/04/14 01:03:38;;;;;;;9.17;7.57;;;16.60;99.90;;;;;;4986658;28;20352;-74
2022/04/14 01:06:04;;;;;;;11.40;9.03;;;16.60;99.90;;;;;;4995193;28;20593;-75
2022/04/14 01:08:32;;;;;;;10.20;8.30;;;16.60;99.90;;;;;;4994894;28;20562;-74
2022/04/14 01:10:59;;;;;;;9.00;7.50;;;16.60;99.90;;;;;;4977542;28;20562;-74
2022/04/14 01:13:25;;;;;;;10.30;9.00;;;16.50;99.90;;;;;;4995206;28;20570;-74
2022/04/14 01:15:58;;;;;;;10.33;8.17;;;16.50;99.90;;;;;;4994919;28;20668;-74
2022/04/14 01:18:25;;;;;;;11.63;9.37;;;16.50;99.90;;;;;;4994675;28;20570;-74
2022/04/14 01:20:51;;;;;;;10.23;9.10;;;16.50;99.90;;;;;;4977335;28;20577;-75
2022/04/14 01:23:22;;;;;;;9.47;8.40;;;16.40;99.90;;;;;;4994821;28;20644;-74
2022/04/14 01:25:48;;;;;;;10.60;9.60;;;16.40;99.90;;;;;;4994738;28;20944;-73
2022/04/14 01:28:14;;;;;;;10.10;8.10;;;16.40;99.90;;;;;;4993204;28;20602;-74
2022/04/14 01:30:39;;;;;;;11.00;9.40;;;16.40;99.90;;;;;;4994477;28;20640;-74
2022/04/14 01:33:05;;;;;;;10.83;9.73;;;16.40;99.90;;;;;;4993965;28;20167;-74
2022/04/14 01:35:31;;;;;;;11.77;10.57;;;16.30;99.90;;;;;;4994833;28;20167;-74
2022/04/14 01:37:57;;;;;;;10.90;9.73;;;16.30;99.90;;;;;;4993046;28;20175;-75
2022/04/14 01:40:23;;;;;;;13.00;11.70;;;16.30;99.90;;;;;;4994368;28;20202;-74
2022/04/14 01:42:48;;;;;;;12.53;11.23;;;16.30;99.90;;;;;;4994443;28;20198;-74
2022/04/14 01:45:14;;;;;;;13.03;11.60;;;16.30;99.90;;;;;;4977179;28;20643;-74
2022/04/14 01:47:41;;;;;;;12.87;11.67;;;16.30;99.90;;;;;;4996785;28;20270;-74
2022/04/14 01:50:09;;;;;;;14.20;12.10;;;16.30;99.90;;;;;;4997151;28;20609;-75
2022/04/14 01:52:35;;;;;;;15.97;13.00;;;16.20;99.90;;;;;;4977721;28;20937;-74
2022/04/14 01:55:00;;;;;;;13.50;12.00;;;16.30;99.90;;;;;;4994643;28;20566;-74
2022/04/14 01:57:26;;;;;;;17.87;13.50;;;16.20;99.90;;;;;;4994478;28;20921;-73
2022/04/14 01:59:52;;;;;;;15.87;13.80;;;16.20;99.90;;;;;;4983853;28;20618;-73
2022/04/14 02:02:18;;;;;;;13.67;12.27;;;16.20;99.90;;;;;;4975554;28;20552;-73
2022/04/14 02:04:44;;;;;;;17.73;15.60;;;16.20;99.90;;;;;;4974757;28;20299;-73
2022/04/14 02:07:10;;;;;;;15.47;13.40;;;16.20;99.90;;;;;;4973271;28;20563;-73
2022/04/14 02:09:36;;;;;;;16.67;14.97;;;16.20;99.90;;;;;;4974603;28;20681;-74
2022/04/14 02:12:04;;;;;;;15.57;13.70;;;16.10;99.90;;;;;;4974487;28;20920;-73
2022/04/14 02:14:30;;;;;;;14.77;13.30;;;16.10;99.90;;;;;;4957336;28;20567;-73
2022/04/14 02:16:55;;;;;;;17.23;14.87;;;16.10;99.90;;;;;;4974533;28;20582;-73
2022/04/14 02:19:21;;;;;;;18.30;16.40;;;16.10;99.90;;;;;;4974187;28;20188;-73
2022/04/14 02:21:47;;;;;;;16.37;14.60;;;16.10;99.90;;;;;;4957013;28;20687;-73
2022/04/14 02:24:13;;;;;;;17.53;15.73;;;16.10;99.90;;;;;;4974416;28;20652;-73
2022/04/14 02:26:39;;;;;;;18.20;15.87;;;16.10;99.90;;;;;;4974230;28;20571;-73
2022/04/14 02:29:04;;;;;;;18.20;14.83;;;16.10;99.90;;;;;;4973851;28;21147;-74
2022/04/14 02:31:30;;;;;;;15.90;13.67;;;16.10;99.90;;;;;;4973998;28;20182;-73
2022/04/14 02:33:56;;;;;;;15.87;14.17;;;16.10;99.90;;;;;;4956877;28;20571;-73
2022/04/14 02:36:23;;;;;;;18.10;15.27;;;16.10;99.90;;;;;;4974085;28;20176;-73
2022/04/14 02:38:49;;;;;;;16.23;14.63;;;16.10;99.90;;;;;;4972580;28;20206;-73
2022/04/14 02:41:15;;;;;;;18.97;16.47;;;16.10;99.90;;;;;;4973887;28;20637;-73
2022/04/14 02:43:41;;;;;;;19.80;17.70;;;16.10;99.90;;;;;;4974303;28;20713;-73
2022/04/14 02:46:06;;;;;;;20.00;16.67;;;16.10;99.90;;;;;;4973848;28;20179;-73
2022/04/14 02:48:32;;;;;;;23.60;19.07;;;16.10;99.90;;;;;;4973647;28;20223;-73
2022/04/14 02:50:58;;;;;;;19.27;17.27;;;16.10;99.90;;;;;;4973713;28;20513;-73
2022/04/14 02:53:24;;;;;;;18.73;16.00;;;16.10;99.90;;;;;;4973619;28;20250;-73
2022/04/14 02:55:50;;;;;;;19.87;16.20;;;16.10;99.90;;;;;;4973653;28;20171;-73
2022/04/14 02:58:16;;;;;;;19.10;17.20;;;16.10;99.90;;;;;;4956006;28;20581;-74
2022/04/14 03:00:42;;;;;;;21.83;18.20;;;16.00;99.90;;;;;;4973529;28;20191;-74
2022/04/14 03:03:07;;;;;;;20.53;18.40;;;16.00;99.90;;;;;;4973250;28;20225;-73
2022/04/14 03:05:33;;;;;;;18.33;16.37;;;16.00;99.90;;;;;;4973441;28;20164;-74
2022/04/14 03:07:59;;;;;;;19.93;17.93;;;16.00;99.90;;;;;;4973117;28;20600;-74
2022/04/14 03:10:25;;;;;;;20.50;18.50;;;16.00;99.90;;;;;;4973144;28;20184;-74
2022/04/14 03:12:51;;;;;;;20.83;18.63;;;16.00;99.90;;;;;;4973394;28;20179;-73
2022/04/14 03:15:18;;;;;;;21.13;19.00;;;16.00;99.90;;;;;;4973455;28;20902;-73
2022/04/14 03:17:44;;;;;;;22.83;18.57;;;16.00;99.90;;;;;;4973063;28;20629;-73
2022/04/14 03:20:11;;;;;;;21.53;18.83;;;15.90;99.90;;;;;;4972869;28;20603;-73
2022/04/14 03:22:37;;;;;;;19.67;17.70;;;15.90;99.90;;;;;;4971831;28;21264;-73
2022/04/14 03:25:11;;;;;;;22.43;18.63;;;15.90;99.90;;;;;;4973177;28;20657;-74
2022/04/14 03:27:37;;;;;;;20.60;18.50;;;15.90;99.90;;;;;;4955543;28;20167;-73
2022/04/14 03:30:04;;;;;;;22.77;20.03;;;15.90;99.90;;;;;;4973123;28;21190;-73
2022/04/14 03:32:30;;;;;;;21.40;18.90;;;15.90;99.90;;;;;;4973154;28;21249;-73
2022/04/14 03:34:56;;;;;;;24.53;20.40;;;15.90;99.90;;;;;;4973238;28;20563;-73
2022/04/14 03:37:22;;;;;;;25.00;20.90;;;15.90;99.90;;;;;;4972773;28;20183;-73
2022/04/14 03:39:48;;;;;;;23.50;21.10;;;15.80;99.90;;;;;;4972704;28;20205;-73
2022/04/14 03:42:13;;;;;;;23.63;21.00;;;15.90;99.90;;;;;;4972923;28;20718;-73
2022/04/14 03:44:39;;;;;;;21.53;19.23;;;15.90;99.90;;;;;;4972822;28;20175;-74
2022/04/14 03:47:05;;;;;;;23.37;20.90;;;15.80;99.90;;;;;;4972632;28;20163;-74
2022/04/14 03:49:31;;;;;;;22.47;20.07;;;15.90;99.90;;;;;;4972830;28;20254;-73
2022/04/14 03:51:56;;;;;;;24.90;21.93;;;15.90;99.90;;;;;;4972807;28;21137;-73
2022/04/14 03:54:22;;;;;;;22.00;19.77;;;15.90;99.90;;;;;;4972441;28;20179;-73
2022/04/14 03:56:48;;;;;;;21.23;18.07;;;15.90;99.90;;;;;;4972377;28;20176;-73
2022/04/14 03:59:15;;;;;;;23.97;19.50;;;15.90;99.90;;;;;;4972331;28;21141;-73
2022/04/14 04:01:41;;;;;;;24.70;20.23;;;15.90;99.90;;;;;;4972696;28;20602;-73
2022/04/14 04:04:07;;;;;;;22.70;19.30;;;15.90;99.90;;;;;;4971281;28;20659;-73
2022/04/14 04:06:33;;;;;;;20.40;18.27;;;15.90;99.90;;;;;;4972815;28;20988;-73
2022/04/14 04:08:58;;;;;;;23.20;20.17;;;15.90;99.90;;;;;;4972292;28;20605;-73
2022/04/14 04:11:24;;;;;;;23.53;21.13;;;15.90;99.90;;;;;;4955307;28;20236;-73
2022/04/14 04:13:50;;;;;;;22.30;19.43;;;15.90;99.90;;;;;;4971445;28;20266;-73
2022/04/14 04:16:15;;;;;;;23.07;20.53;;;15.90;99.90;;;;;;4972658;28;20172;-73
2022/04/14 04:18:41;;;;;;;23.53;20.77;;;15.90;99.90;;;;;;4972027;28;20603;-73
2022/04/14 04:21:07;;;;;;;26.77;21.53;;;15.90;99.90;;;;;;4972472;28;20312;-73
2022/04/14 04:23:32;;;;;;;23.53;21.03;;;15.90;99.90;;;;;;4972547;28;20667;-73
2022/04/14 04:25:58;;;;;;;22.80;20.30;;;15.90;99.90;;;;;;4971525;28;20195;-73
2022/04/14 04:28:30;;;;;;;21.87;19.57;;;15.90;99.90;;;;;;4970547;28;20163;-73
2022/04/14 04:30:59;;;;;;;23.60;21.20;;;15.80;99.90;;;;;;4972445;28;20179;-73
2022/04/14 04:33:25;;;;;;;20.70;18.47;;;15.80;99.90;;;;;;4972399;28;20566;-73
2022/04/14 04:35:51;;;;;;;25.33;22.40;;;15.70;99.90;;;;;;4955022;28;20945;-73
2022/04/14 04:38:17;;;;;;;26.57;22.17;;;15.70;99.90;;;;;;4971977;28;20571;-73
2022/04/14 04:40:42;;;;;;;25.30;21.73;;;15.70;99.90;;;;;;4972116;28;20961;-73
2022/04/14 04:43:09;;;;;;;24.80;21.27;;;15.70;99.90;;;;;;4972135;28;20974;-75
2022/04/14 04:45:36;;;;;;;22.88;20.58;;;15.70;99.90;;;;;;4972292;28;20164;-74
2022/04/14 04:48:04;;;;;;;24.92;21.58;;;15.70;99.90;;;;;;4971994;28;20187;-74
2022/04/14 04:50:30;;;;;;;24.70;20.57;;;15.70;99.90;;;;;;4971994;28;20188;-74
2022/04/14 04:52:56;;;;;;;24.98;22.30;;;15.70;99.90;;;;;;4972311;28;20602;-74
2022/04/14 04:55:22;;;;;;;27.73;21.97;;;15.70;99.90;;;;;;4970950;28;20644;-74
2022/04/14 04:57:47;;;;;;;26.07;20.93;;;15.70;99.90;;;;;;4970632;28;20220;-74
2022/04/14 05:00:13;;;;;;;22.00;19.47;;;15.70;99.90;;;;;;4972054;28;20187;-74
2022/04/14 05:02:39;;;;;;;25.45;20.70;;;15.70;99.90;;;;;;4972110;28;20234;-74
2022/04/14 05:05:05;;;;;;;23.30;20.77;;;15.70;99.90;;;;;;4972015;28;20258;-74
2022/04/14 05:07:31;;;;;;;24.52;21.92;;;15.70;99.90;;;;;;4972626;28;20171;-74
2022/04/14 05:09:57;;;;;;;28.73;23.03;;;15.70;99.90;;;;;;4975625;28;20199;-74
2022/04/14 05:12:22;;;;;;;25.27;21.03;;;15.70;99.90;;;;;;4974304;28;20250;-74
2022/04/14 05:14:48;;;;;;;26.50;22.77;;;15.70;99.90;;;;;;4958141;28;20259;-74
2022/04/14 05:17:14;;;;;;;24.97;21.63;;;15.70;99.90;;;;;;4975322;28;20235;-74
2022/04/14 05:19:39;;;;;;;24.90;22.20;;;15.70;99.90;;;;;;4957964;28;20262;-74
2022/04/14 05:22:05;;;;;;;27.13;24.20;;;15.70;99.90;;;;;;4975050;28;20203;-74
2022/04/14 05:24:32;;;;;;;28.87;24.37;;;15.70;99.90;;;;;;4958317;28;20633;-75
2022/04/14 05:26:58;;;;;;;27.15;23.52;;;15.70;99.90;;;;;;4975344;28;20633;-74
2022/04/14 05:29:23;;;;;;;26.73;22.83;;;15.70;99.90;;;;;;4974777;28;20200;-74
2022/04/14 05:31:49;;;;;;;26.33;23.07;;;15.70;99.90;;;;;;4974586;28;20222;-74
2022/04/14 05:34:15;;;;;;;26.53;23.73;;;15.70;99.90;;;;;;4982918;28;20171;-74
2022/04/14 05:36:40;;;;;;;28.67;24.80;;;15.70;99.90;;;;;;4981959;28;20258;-74
2022/04/14 05:39:06;;;;;;;26.73;23.90;;;15.70;99.90;;;;;;4985733;28;20603;-74
2022/04/14 05:41:32;;;;;;;29.10;26.07;;;15.70;99.90;;;;;;4983451;28;20184;-74
2022/04/14 05:43:58;;;;;;;28.50;25.40;;;15.70;99.90;;;;;;4994043;28;20290;-74
2022/04/14 05:46:24;;;;;;;30.00;26.55;;;15.70;99.90;;;;;;4994660;28;20574;-74
2022/04/14 05:48:51;;;;;;;28.73;25.63;;;15.70;99.90;;;;;;4992991;28;20194;-74
2022/04/14 05:51:18;;;;;;;30.73;25.67;;;15.70;99.90;;;;;;4976900;28;20575;-74
2022/04/14 05:53:44;;;;;;;27.10;24.13;;;15.70;99.90;;;;;;4975369;28;21526;-74
2022/04/14 05:56:10;;;;;;;28.40;25.20;;;15.70;99.90;;;;;;4985775;28;20606;-74
2022/04/14 05:58:35;;;;;;;30.73;26.30;;;15.70;99.90;;;;;;4993995;28;20559;-74
2022/04/14 06:01:01;;;;;;;30.37;25.43;;;15.70;99.90;;;;;;4994309;28;20568;-74
2022/04/14 06:03:27;;;;;;;29.00;23.67;;;15.70;99.90;;;;;;4994278;28;20203;-74
2022/04/14 06:05:53;;;;;;;36.63;27.77;;;15.70;99.90;;;;;;4994140;28;20172;-74
2022/04/14 06:08:19;;;;;;;29.43;24.87;;;15.70;99.90;;;;;;4994253;28;20171;-73
2022/04/14 06:10:45;;;;;;;33.07;27.67;;;15.70;99.90;;;;;;4993999;28;20261;-74
2022/04/14 06:13:14;;;;;;;29.30;24.17;;;15.80;99.90;;;;;;4994240;28;20574;-73
2022/04/14 06:15:40;;;;;;;31.17;26.30;;;15.70;99.90;;;;;;4993016;28;20209;-73
2022/04/14 06:18:06;;;;;;;31.40;26.97;;;15.70;99.90;;;;;;4992219;28;20652;-73
2022/04/14 06:20:32;;;;;;;30.10;25.57;;;15.80;99.90;;;;;;4973401;28;20199;-73
2022/04/14 06:22:58;;;;;;;31.70;26.00;;;15.70;99.90;;;;;;4979063;28;20282;-73
2022/04/14 06:25:24;;;;;;;31.57;27.03;;;15.80;99.90;;;;;;4974554;28;20176;-74
2022/04/14 06:27:52;;;;;;;30.88;25.98;;;15.80;99.90;;;;;;4984187;28;20919;-74
2022/04/14 06:30:18;;;;;;;31.70;26.03;;;15.80;99.90;;;;;;4957299;28;20265;-73
2022/04/14 06:32:56;;;;;;;31.63;25.20;;;15.80;99.90;;;;;;4965210;28;20590;-74
2022/04/14 06:35:22;;;;;;;33.17;26.33;;;15.80;99.90;;;;;;4958195;28;20174;-74
2022/04/14 06:37:47;;;;;;;36.10;27.17;;;15.80;99.90;;;;;;4993035;28;20270;-73
2022/04/14 06:40:13;;;;;;;37.83;28.53;;;15.90;99.90;;;;;;4992170;28;20191;-73
2022/04/14 06:42:39;;;;;;;30.40;24.03;;;15.90;99.90;;;;;;4990542;28;20202;-73
2022/04/14 06:45:05;;;;;;;35.70;28.90;;;15.90;99.90;;;;;;4973241;28;20179;-73
2022/04/14 06:47:32;;;;;;;34.60;26.97;;;16.00;99.90;;;;;;4973488;28;20167;-74
2022/04/14 06:49:58;;;;;;;33.75;26.42;;;16.10;99.90;;;;;;4975820;28;20602;-74
2022/04/14 06:52:23;;;;;;;30.77;26.07;;;16.20;99.90;;;;;;4977107;28;20190;-74
2022/04/14 06:54:49;;;;;;;34.10;27.20;;;16.40;99.90;;;;;;4973528;28;20164;-73
2022/04/14 06:57:16;;;;;;;28.77;23.90;;;16.50;99.90;;;;;;4973520;28;20164;-73
2022/04/14 06:59:42;;;;;;;27.20;24.30;;;16.70;99.90;;;;;;4973210;28;20595;-73
2022/04/14 07:02:07;;;;;;;25.93;23.20;;;16.80;99.90;;;;;;4973441;28;20574;-73
2022/04/14 07:04:34;;;;;;;26.50;21.97;;;17.00;99.90;;;;;;4972306;28;20590;-73
2022/04/14 07:06:59;;;;;;;28.50;22.40;;;17.10;99.90;;;;;;4955969;28;20187;-73
2022/04/14 07:09:29;;;;;;;30.87;22.30;;;17.20;99.90;;;;;;4972921;28;20817;-73
2022/04/14 07:11:56;;;;;;;24.03;21.47;;;17.30;99.90;;;;;;4973255;28;20650;-73
2022/04/14 07:14:21;;;;;;;28.20;23.80;;;17.40;99.90;;;;;;4973294;28;20582;-73
2022/04/14 07:16:49;;;;;;;29.80;24.03;;;17.50;99.90;;;;;;4972010;28;20980;-73
2022/04/14 07:19:15;;;;;;;27.90;22.93;;;17.60;99.90;;;;;;4969530;28;20677;-73
2022/04/14 07:21:41;;;;;;;26.47;23.20;;;17.70;99.90;;;;;;4960443;28;20595;-73
2022/04/14 07:24:06;;;;;;;25.87;22.33;;;17.80;99.90;;;;;;4973087;28;20612;-73
2022/04/14 07:26:32;;;;;;;28.90;22.53;;;17.90;99.90;;;;;;4981307;28;20171;-73
2022/04/14 07:28:58;;;;;;;25.30;21.60;;;18.00;99.90;;;;;;4970964;28;20214;-73
2022/04/14 07:31:23;;;;;;;23.73;21.10;;;18.20;99.90;;;;;;4972152;28;20667;-73
2022/04/14 07:33:49;;;;;;;27.47;22.07;;;18.30;99.90;;;;;;4969993;28;20185;-72
2022/04/14 07:36:19;;;;;;;25.50;21.87;;;18.40;99.90;;;;;;4969941;28;20179;-72
2022/04/14 07:38:44;;;;;;;27.33;20.73;;;18.60;99.90;;;;;;4954400;28;20290;-73
2022/04/14 07:41:11;;;;;;;25.33;21.60;;;18.80;99.90;;;;;;4974778;28;20667;-72
2022/04/14 07:43:36;;;;;;;24.77;21.00;;;19.10;99.90;;;;;;4972599;28;20211;-73
2022/04/14 07:46:03;;;;;;;22.23;19.90;;;19.40;99.90;;;;;;4954691;28;20632;-73
2022/04/14 07:48:30;;;;;;;22.60;20.17;;;19.80;99.90;;;;;;4972165;28;20613;-72
2022/04/14 07:50:56;;;;;;;19.27;17.27;;;20.20;99.90;;;;;;4972375;28;20676;-73
2022/04/14 07:53:21;;;;;;;22.13;19.83;;;20.60;99.90;;;;;;4972541;28;21215;-73
2022/04/14 07:55:47;;;;;;;22.63;19.43;;;20.90;99.90;;;;;;4972467;28;20194;-73
2022/04/14 07:58:13;;;;;;;21.83;19.53;;;21.20;99.90;;;;;;4972105;28;20175;-73
2022/04/14 08:00:40;;;;;;;19.30;17.30;;;21.50;99.90;;;;;;4970471;28;20204;-73
2022/04/14 08:03:06;;;;;;;18.63;16.77;;;21.90;99.90;;;;;;4968965;28;20741;-74
2022/04/14 08:05:38;;;;;;;20.33;18.00;;;22.30;99.90;;;;;;4971753;28;20572;-73
2022/04/14 08:08:14;;;;;;;18.20;16.43;;;22.70;99.90;;;;;;4971192;28;20579;-73
2022/04/14 08:10:50;;;;;;;18.93;16.90;;;23.10;99.90;;;;;;4969355;28;20691;-73
2022/04/14 08:13:17;;;;;;;17.13;15.43;;;23.70;99.90;;;;;;4972161;28;20642;-74
2022/04/14 08:15:43;;;;;;;19.13;15.60;;;24.30;99.90;;;;;;4970473;28;20599;-74
2022/04/14 08:18:09;;;;;;;18.97;17.07;;;24.90;99.90;;;;;;4938080;28;20925;-74
2022/04/14 08:20:39;;;;;;;18.43;15.40;;;25.40;99.90;;;;;;4971251;28;20618;-74
2022/04/14 08:23:06;;;;;;;17.33;15.27;;;25.90;99.90;;;;;;4971843;28;20793;-74
2022/04/14 08:25:35;;;;;;;14.90;13.30;;;26.30;99.90;;;;;;4986407;28;21150;-74
2022/04/14 08:28:03;;;;;;;16.83;14.50;;;26.50;99.90;;;;;;4971508;28;21157;-74
2022/04/14 08:30:30;;;;;;;16.30;14.70;;;26.70;99.90;;;;;;4971607;28;20944;-74
2022/04/14 08:32:59;;;;;;;16.00;14.43;;;26.90;99.90;;;;;;4977760;28;20586;-75
2022/04/14 08:35:26;;;;;;;18.70;15.80;;;26.90;99.90;;;;;;4990121;28;20578;-75
2022/04/14 08:37:52;;;;;;;17.43;15.50;;;27.00;99.90;;;;;;4979825;28;20940;-74
2022/04/14 08:40:23;;;;;;;15.43;13.80;;;27.20;99.90;;;;;;4970431;28;20981;-75
2022/04/14 08:42:53;;;;;;;15.90;14.20;;;27.50;99.90;;;;;;4974881;28;20624;-74
2022/04/14 08:45:22;;;;;;;14.90;13.47;;;28.00;99.90;;;;;;4975745;28;20586;-74
2022/04/14 08:47:50;;;;;;;15.67;14.07;;;28.70;99.90;;;;;;4975208;28;20638;-74
2022/04/14 08:50:17;;;;;;;16.10;14.70;;;29.20;99.90;;;;;;4975279;28;20722;-74
2022/04/14 08:52:43;;;;;;;15.43;14.03;;;29.70;99.90;;;;;;4957504;28;20661;-75
2022/04/14 08:55:11;;;;;;;15.53;14.03;;;29.90;99.90;;;;;;4979358;28;20677;-74
2022/04/14 08:57:38;;;;;;;15.87;14.40;;;29.70;99.90;;;;;;4986269;28;20597;-74
2022/04/14 09:00:06;;;;;;;14.73;13.37;;;29.50;99.60;;;;;;4982243;28;21041;-74
2022/04/14 09:02:34;;;;;;;16.73;14.87;;;29.70;99.80;;;;;;4975157;28;20622;-74
2022/04/14 09:05:00;;;;;;;14.40;13.10;;;30.10;99.90;;;;;;4957802;28;20702;-74
2022/04/14 09:07:27;;;;;;;14.47;12.93;;;30.60;99.90;;;;;;4974977;28;20559;-75
2022/04/14 09:09:53;;;;;;;12.03;10.93;;;31.20;99.70;;;;;;4974934;28;20611;-75
2022/04/14 09:12:19;;;;;;;14.27;13.00;;;31.90;99.40;;;;;;4973337;28;21204;-74
2022/04/14 09:14:48;;;;;;;12.37;11.23;;;32.50;97.70;;;;;;4975086;28;20596;-74
2022/04/14 09:17:15;;;;;;;11.70;10.60;;;32.60;94.70;;;;;;4974618;28;20571;-74
2022/04/14 09:19:41;;;;;;;12.90;11.70;;;32.40;93.00;;;;;;4974797;28;20606;-74
2022/04/14 09:22:08;;;;;;;13.87;12.47;;;32.00;90.60;;;;;;4974458;28;20567;-74
2022/04/14 09:24:39;;;;;;;13.87;12.40;;;31.60;90.10;;;;;;4957620;28;20590;-74
2022/04/14 09:27:05;;;;;;;13.37;12.07;;;31.10;87.10;;;;;;4972244;28;20587;-74
2022/04/14 09:29:31;;;;;;;13.27;11.90;;;30.50;86.50;;;;;;4969282;28;20645;-75
2022/04/14 09:31:57;;;;;;;12.67;11.37;;;30.20;87.90;;;;;;4952612;28;20606;-74
2022/04/14 09:34:51;;;;;;;13.00;11.50;;;30.20;89.60;;;;;;4974645;28;20193;-74
2022/04/14 09:37:18;;;;;;;12.53;11.33;;;30.60;90.50;;;;;;4974371;28;20183;-74
2022/04/14 09:40:08;;;;;;;12.47;11.17;;;31.10;91.30;;;;;;4973890;28;20594;-74
2022/04/14 09:42:35;;;;;;;11.63;10.63;;;31.40;88.50;;;;;;4974277;28;20734;-74
2022/04/14 09:45:20;;;;;;;12.17;11.07;;;31.90;89.60;;;;;;4973986;28;20991;-75
2022/04/14 09:47:47;;;;;;;10.97;9.97;;;32.40;87.10;;;;;;4971832;28;20702;-75
2022/04/14 09:50:29;;;;;;;11.10;10.10;;;32.90;85.00;;;;;;4974158;28;20620;-74
2022/04/14 09:53:07;;;;;;;10.73;9.67;;;33.40;83.30;;;;;;4956426;28;20990;-74
2022/04/14 09:55:38;;;;;;;11.50;10.40;;;34.00;83.30;;;;;;4974679;28;20649;-74
2022/04/14 09:58:05;;;;;;;9.10;8.30;;;34.50;79.30;;;;;;4973479;28;20677;-74
2022/04/14 10:00:48;;;;;;;10.73;9.73;;;34.40;76.00;;;;;;4974199;28;20613;-74
2022/04/14 10:03:21;;;;;;;10.87;9.83;;;34.00;71.80;;;;;;4973226;28;20616;-74
2022/04/14 10:05:52;;;;;;;11.07;9.97;;;33.50;70.00;;;;;;4974311;28;20564;-74
2022/04/14 10:08:19;;;;;;;11.40;10.37;;;33.10;69.50;;;;;;4973928;28;20599;-75
2022/04/14 10:10:46;;;;;;;8.93;7.50;;;32.90;71.00;;;;;;4974229;28;20603;-74
2022/04/14 10:13:14;;;;;;;10.40;8.20;;;33.00;72.30;;;;;;4974159;28;20639;-74
2022/04/14 10:15:49;;;;;;;9.23;8.43;;;33.20;71.60;;;;;;4973486;28;20592;-74
2022/04/14 10:18:17;;;;;;;9.97;8.97;;;33.60;70.40;;;;;;4973637;28;20651;-74
2022/04/14 10:20:45;;;;;;;8.03;7.40;;;34.00;70.20;;;;;;4973959;28;20602;-75
2022/04/14 10:23:15;;;;;;;8.43;7.43;;;34.40;69.40;;;;;;4973377;28;20635;-74
2022/04/14 10:25:42;;;;;;;8.23;7.47;;;34.90;68.70;;;;;;4954735;28;20972;-74
2022/04/14 10:28:15;;;;;;;8.80;6.73;;;35.30;68.40;;;;;;4953962;28;21135;-74
2022/04/14 10:30:46;;;;;;;8.00;7.30;;;35.70;64.70;;;;;;4954190;28;21001;-74
2022/04/14 10:33:12;;;;;;;7.53;6.53;;;36.20;63.30;;;;;;4954391;28;20575;-74
2022/04/14 10:35:38;;;;;;;6.67;6.07;;;36.50;63.70;;;;;;4954421;28;20812;-75
2022/04/14 10:38:11;;;;;;;7.67;6.90;;;36.70;62.20;;;;;;4967875;28;20702;-74
2022/04/14 10:40:43;;;;;;;6.80;6.23;;;36.70;60.00;;;;;;4972433;28;21241;-74
2022/04/14 10:43:12;;;;;;;5.10;4.70;;;36.50;59.10;;;;;;4968802;28;21044;-74
2022/04/14 10:45:54;;;;;;;5.63;5.03;;;36.30;58.20;;;;;;4960709;28;20591;-74
2022/04/14 10:48:34;;;;;;;7.57;6.50;;;36.20;57.70;;;;;;4970975;28;20962;-75
2022/04/14 10:51:24;;;;;;;6.47;5.87;;;36.00;56.30;;;;;;4973316;28;21304;-74
2022/04/14 10:54:00;;;;;;;7.13;6.43;;;35.90;56.60;;;;;;4973172;28;21162;-74
2022/04/14 10:56:41;;;;;;;7.53;6.97;;;35.90;56.30;;;;;;4973851;28;20567;-74
2022/04/14 10:59:11;;;;;;;12.07;8.67;;;35.80;55.50;;;;;;4959571;28;21225;-74
2022/04/14 11:01:46;;;;;;;8.57;7.40;;;35.70;55.30;;;;;;4958638;28;20587;-74
2022/04/14 11:04:25;;;;;;;8.43;6.60;;;35.50;53.80;;;;;;4972514;28;20630;-74
2022/04/14 11:06:53;;;;;;;9.00;8.20;;;35.30;53.70;;;;;;4973333;28;20570;-74
2022/04/14 11:09:48;;;;;;;10.43;9.47;;;35.10;53.70;;;;;;4972506;28;21019;-74
2022/04/14 11:12:19;;;;;;;10.23;9.30;;;34.90;53.30;;;;;;4973205;28;20562;-74
2022/04/14 11:14:45;;;;;;;10.00;9.10;;;34.60;53.40;;;;;;4972887;28;20607;-74
2022/04/14 11:17:37;;;;;;;8.30;7.60;;;34.40;53.60;;;;;;4972871;28;20662;-74
2022/04/14 11:20:12;;;;;;;8.30;7.60;;;34.30;53.60;;;;;;4972379;28;20591;-75
2022/04/14 11:23:15;;;;;;;7.90;7.20;;;34.10;51.80;;;;;;4972310;28;20643;-75
2022/04/14 11:25:44;;;;;;;7.23;6.63;;;33.80;51.90;;;;;;4970375;28;20696;-75
2022/04/14 11:28:30;;;;;;;7.17;6.47;;;33.60;52.40;;;;;;4970595;28;20662;-75
2022/04/14 11:31:18;;;;;;;8.20;7.40;;;33.40;52.10;;;;;;4968515;28;20589;-74
2022/04/14 11:33:45;;;;;;;7.30;6.80;;;33.30;52.70;;;;;;4972784;28;20589;-73
2022/04/14 11:36:13;;;;;;;5.40;5.00;;;33.00;52.20;;;;;;4971724;28;20680;-74
2022/04/14 11:39:01;;;;;;;6.90;5.67;;;32.80;52.80;;;;;;4972291;28;20637;-74
2022/04/14 11:41:42;;;;;;;7.57;6.40;;;32.70;52.90;;;;;;4969515;28;20603;-74
2022/04/14 11:44:13;;;;;;;8.13;7.43;;;32.60;52.10;;;;;;4968695;28;20647;-74
2022/04/14 11:46:41;;;;;;;8.50;7.63;;;32.30;51.30;;;;;;4972010;28;20643;-74
2022/04/14 11:49:09;;;;;;;6.37;5.77;;;31.70;50.80;;;;;;4971904;28;20599;-75
2022/04/14 11:51:55;;;;;;;6.87;6.20;;;31.20;51.30;;;;;;4954395;28;20579;-74
2022/04/14 11:54:26;;;;;;;7.07;6.37;;;30.80;52.10;;;;;;4962719;28;21009;-75
2022/04/14 11:56:54;;;;;;;7.17;6.53;;;30.60;52.60;;;;;;4971418;28;20646;-74
2022/04/14 11:59:30;;;;;;;6.10;5.60;;;30.40;52.10;;;;;;4970090;28;20617;-75
2022/04/14 12:02:01;;;;;;;5.90;5.37;;;30.20;52.10;;;;;;4971662;28;20686;-75
2022/04/14 12:04:27;;;;;;;5.63;4.90;;;29.90;52.20;;;;;;4972223;28;21314;-75
2022/04/14 12:06:55;;;;;;;6.07;5.57;;;29.60;51.90;;;;;;4972293;28;20674;-75
2022/04/14 12:09:22;;;;;;;7.53;6.70;;;29.20;52.00;;;;;;4971589;28;20599;-75
2022/04/14 12:11:48;;;;;;;5.40;4.90;;;29.00;52.70;;;;;;4970799;28;20588;-74
2022/04/14 12:14:16;;;;;;;8.73;6.47;;;28.80;53.00;;;;;;4969663;28;20595;-75
2022/04/14 12:16:52;;;;;;;7.60;6.87;;;28.50;53.00;;;;;;4969498;28;20230;-75
2022/04/14 12:19:19;;;;;;;8.87;8.07;;;28.30;53.00;;;;;;4971504;28;20700;-75
2022/04/14 12:22:07;;;;;;;8.57;6.30;;;28.00;52.90;;;;;;4971710;28;20571;-74
2022/04/14 12:24:32;;;;;;;6.57;5.90;;;27.60;53.20;;;;;;4972055;28;20633;-74
2022/04/14 12:26:59;;;;;;;7.43;6.73;;;27.50;54.10;;;;;;4971712;28;20564;-74
2022/04/14 12:29:26;;;;;;;9.30;8.40;;;27.40;54.80;;;;;;4970940;28;20790;-75
2022/04/14 12:31:56;;;;;;;7.90;7.10;;;27.40;55.20;;;;;;4970043;28;20591;-75
2022/04/14 12:34:22;;;;;;;7.70;7.00;;;27.40;55.30;;;;;;4967518;28;20583;-74
2022/04/14 12:36:48;;;;;;;9.60;8.03;;;27.40;55.30;;;;;;4966773;28;20637;-74